Time;durP1;ratioP1;P1;durP2;ratioP2;P2;SDS_P1;SDS_P2;PMS_P1;PMS_P2;Temp;Humidity;BMP_temperature;BMP_pressure;BME280_temperature;BME280_humidity;BME280_pressure;Samples;Min_cycle;Max_cycle;Signal;HPM_P1;HPM_P2
2022/04/25 00:01:50;;;;;;;2.00;1.80;;;20.40;47.40;;;;;;5069394;28;44816;-59
2022/04/25 00:04:18;;;;;;;2.83;1.95;;;20.40;47.30;;;;;;5064252;28;43706;-60
2022/04/25 00:06:46;;;;;;;1.75;1.65;;;20.30;47.30;;;;;;5062808;28;44093;-59
2022/04/25 00:09:13;;;;;;;2.08;1.70;;;20.40;47.30;;;;;;5071016;28;43442;-60
2022/04/25 00:11:40;;;;;;;2.25;1.80;;;20.40;47.30;;;;;;5071070;28;43903;-60
2022/04/25 00:14:07;;;;;;;1.80;1.60;;;20.30;47.20;;;;;;5071555;28;43778;-59
2022/04/25 00:16:35;;;;;;;1.77;1.67;;;20.30;47.30;;;;;;5073091;27;43493;-60
2022/04/25 00:19:02;;;;;;;2.55;2.08;;;20.30;47.30;;;;;;5071132;28;44173;-59
2022/04/25 00:21:29;;;;;;;1.52;1.42;;;20.30;47.30;;;;;;5071327;28;45036;-60
2022/04/25 00:23:57;;;;;;;2.40;1.77;;;20.30;47.30;;;;;;5069230;28;43492;-59
2022/04/25 00:26:25;;;;;;;2.70;1.90;;;20.30;47.30;;;;;;5073312;27;43481;-60
2022/04/25 00:28:52;;;;;;;2.00;1.80;;;20.20;47.30;;;;;;5067399;28;44154;-59
2022/04/25 00:31:20;;;;;;;1.88;1.60;;;20.20;47.30;;;;;;5069309;28;45116;-60
2022/04/25 00:33:47;;;;;;;1.92;1.80;;;20.20;47.30;;;;;;5064226;28;43466;-60
2022/04/25 00:36:14;;;;;;;1.60;1.50;;;20.20;47.30;;;;;;5073228;27;43469;-60
2022/04/25 00:38:42;;;;;;;2.50;1.70;;;20.20;47.30;;;;;;5067643;28;43621;-59
2022/04/25 00:41:09;;;;;;;2.10;1.83;;;20.20;47.30;;;;;;5068427;28;44335;-59
2022/04/25 00:43:36;;;;;;;2.70;1.73;;;20.20;47.30;;;;;;5072285;27;43980;-60
2022/04/25 00:46:04;;;;;;;2.08;1.75;;;20.20;47.20;;;;;;5068873;28;43625;-60
2022/04/25 00:48:31;;;;;;;2.45;1.55;;;20.20;47.20;;;;;;5069562;28;43570;-60
2022/04/25 00:50:59;;;;;;;1.95;1.80;;;20.20;47.20;;;;;;5070388;28;44903;-60
2022/04/25 00:53:26;;;;;;;1.80;1.65;;;20.20;47.20;;;;;;5070891;28;44134;-60
2022/04/25 00:55:54;;;;;;;1.92;1.60;;;20.20;47.20;;;;;;5070814;28;43501;-59
2022/04/25 00:58:21;;;;;;;2.25;1.60;;;20.20;47.30;;;;;;5068959;28;44102;-59
2022/04/25 01:00:48;;;;;;;1.83;1.67;;;20.10;47.30;;;;;;5069074;28;44884;-60
2022/04/25 01:03:17;;;;;;;2.00;1.80;;;20.10;47.30;;;;;;5069808;28;45134;-60
2022/04/25 01:05:45;;;;;;;2.00;1.77;;;20.10;47.30;;;;;;5069612;28;43500;-59
2022/04/25 01:08:12;;;;;;;1.52;1.42;;;20.10;47.30;;;;;;5067622;28;43535;-59
2022/04/25 01:10:39;;;;;;;2.05;1.67;;;20.10;47.30;;;;;;5068143;28;43928;-60
2022/04/25 01:13:06;;;;;;;1.92;1.60;;;20.10;47.30;;;;;;5074174;28;43482;-59
2022/04/25 01:15:34;;;;;;;1.65;1.55;;;20.10;47.30;;;;;;5066174;28;43510;-61
2022/04/25 01:18:02;;;;;;;1.90;1.77;;;20.00;47.30;;;;;;5068955;28;44131;-60
2022/04/25 01:20:29;;;;;;;2.08;1.70;;;20.00;47.30;;;;;;5067616;28;44992;-59
2022/04/25 01:27:15;;;;;;;1.60;1.50;;;20.00;47.30;;;;;;5074179;28;43487;-59
2022/04/25 01:28:39;;;;;;;1.75;1.65;;;20.00;47.30;;;;;;5069205;28;43571;-61
2022/04/25 01:31:06;;;;;;;1.83;1.60;;;20.00;47.40;;;;;;5072728;28;44767;-59
2022/04/25 01:33:33;;;;;;;1.70;1.55;;;20.00;47.40;;;;;;5069779;27;43493;-59
2022/04/25 01:36:03;;;;;;;1.70;1.60;;;20.00;47.50;;;;;;5068786;28;43576;-59
2022/04/25 01:38:30;;;;;;;1.70;1.60;;;19.90;47.40;;;;;;5068065;28;43576;-59
2022/04/25 01:40:57;;;;;;;1.65;1.50;;;20.00;47.50;;;;;;5072567;28;43878;-59
2022/04/25 01:43:25;;;;;;;1.83;1.73;;;20.00;47.50;;;;;;5066776;28;45026;-60
2022/04/25 01:45:52;;;;;;;1.67;1.42;;;19.90;47.30;;;;;;5072827;28;43474;-59
2022/04/25 01:48:21;;;;;;;2.08;1.50;;;19.90;47.40;;;;;;5071953;27;43439;-59
2022/04/25 01:50:49;;;;;;;1.60;1.50;;;19.90;47.50;;;;;;5077306;28;43992;-59
2022/04/25 01:53:17;;;;;;;1.70;1.60;;;19.90;47.40;;;;;;5070734;28;43506;-60
2022/04/25 01:55:44;;;;;;;1.75;1.50;;;19.90;47.40;;;;;;5071603;28;44008;-59
2022/04/25 01:58:12;;;;;;;2.33;1.70;;;19.90;47.40;;;;;;5073717;28;43518;-59
2022/04/25 02:00:39;;;;;;;1.55;1.45;;;19.90;47.30;;;;;;5076602;27;43985;-60
2022/04/25 02:03:07;;;;;;;1.80;1.70;;;19.90;47.40;;;;;;5068659;28;43457;-59
2022/04/25 02:05:34;;;;;;;1.73;1.63;;;19.90;47.40;;;;;;5071764;28;43594;-59
2022/04/25 02:08:02;;;;;;;2.00;1.80;;;19.90;47.40;;;;;;5072458;28;43504;-60
2022/04/25 02:10:29;;;;;;;1.67;1.55;;;19.90;47.40;;;;;;5075965;27;44813;-59
2022/04/25 02:12:57;;;;;;;1.83;1.58;;;19.90;47.50;;;;;;5071232;28;43458;-60
2022/04/25 02:15:24;;;;;;;1.65;1.55;;;19.90;47.50;;;;;;5070963;28;43526;-59
2022/04/25 02:17:52;;;;;;;1.63;1.45;;;19.90;47.40;;;;;;5076523;28;43484;-60
2022/04/25 02:20:19;;;;;;;1.60;1.50;;;19.80;47.40;;;;;;5075691;28;44170;-60
2022/04/25 02:22:48;;;;;;;1.65;1.52;;;19.80;47.40;;;;;;5072125;28;43490;-60
2022/04/25 02:25:15;;;;;;;1.70;1.60;;;19.80;47.50;;;;;;5065115;28;43507;-59
2022/04/25 02:27:42;;;;;;;1.95;1.75;;;19.80;47.50;;;;;;5075874;28;43971;-59
2022/04/25 02:30:10;;;;;;;1.67;1.58;;;19.80;48.10;;;;;;5066286;27;44764;-59
2022/04/25 02:32:38;;;;;;;1.67;1.50;;;19.80;47.60;;;;;;5071486;28;43932;-59
2022/04/25 02:35:06;;;;;;;1.70;1.20;;;19.80;48.20;;;;;;5068108;28;43490;-60
2022/04/25 02:37:33;;;;;;;1.50;1.40;;;19.70;47.50;;;;;;5071794;28;43523;-60
2022/04/25 02:40:00;;;;;;;1.83;1.60;;;19.70;47.50;;;;;;5073500;28;44228;-59
2022/04/25 02:42:27;;;;;;;1.77;1.55;;;19.70;47.40;;;;;;5070643;28;43828;-59
2022/04/25 02:44:55;;;;;;;1.52;1.40;;;19.70;47.50;;;;;;5071738;28;43545;-59
2022/04/25 02:47:22;;;;;;;2.35;1.75;;;19.70;47.50;;;;;;5073341;28;43528;-59
2022/04/25 02:49:49;;;;;;;1.50;1.40;;;19.70;47.50;;;;;;5074835;27;44923;-60
2022/04/25 02:52:16;;;;;;;1.95;1.50;;;19.70;47.50;;;;;;5069124;28;43477;-60
2022/04/25 02:54:44;;;;;;;1.90;1.50;;;19.60;47.50;;;;;;5069683;28;43448;-60
2022/04/25 02:57:11;;;;;;;1.80;1.60;;;19.70;47.40;;;;;;5075375;27;44087;-59
2022/04/25 02:59:38;;;;;;;1.70;1.60;;;19.70;47.50;;;;;;5074026;27;44807;-60
2022/04/25 03:02:05;;;;;;;1.30;1.30;;;19.70;47.40;;;;;;5068473;28;43498;-59
2022/04/25 03:04:34;;;;;;;1.60;1.50;;;19.60;47.40;;;;;;5072125;28;43433;-59
2022/04/25 03:07:03;;;;;;;1.50;1.40;;;19.60;48.10;;;;;;5075469;28;43467;-59
2022/04/25 03:09:30;;;;;;;1.80;1.70;;;19.60;47.40;;;;;;5069731;27;44939;-59
2022/04/25 03:11:58;;;;;;;1.55;1.45;;;19.60;47.50;;;;;;5067706;28;43449;-60
2022/04/25 03:14:26;;;;;;;1.90;1.80;;;19.60;47.50;;;;;;5069598;28;43426;-59
2022/04/25 03:16:54;;;;;;;2.22;1.83;;;19.60;47.50;;;;;;5066786;28;43566;-59
2022/04/25 03:19:21;;;;;;;1.60;1.50;;;19.60;47.60;;;;;;5070114;27;45158;-59
2022/04/25 03:21:48;;;;;;;1.55;1.45;;;19.60;47.40;;;;;;5072235;28;43504;-59
2022/04/25 03:24:15;;;;;;;1.52;1.40;;;19.60;47.60;;;;;;5072370;28;43459;-60
2022/04/25 03:26:43;;;;;;;1.58;1.40;;;19.60;47.60;;;;;;5075094;28;43486;-59
2022/04/25 03:29:11;;;;;;;1.48;1.38;;;19.60;47.60;;;;;;5071592;27;44869;-59
2022/04/25 03:31:38;;;;;;;1.77;1.67;;;19.50;47.50;;;;;;5071839;28;43511;-59
2022/04/25 03:34:05;;;;;;;1.75;1.42;;;19.50;47.50;;;;;;5068135;28;43458;-60
2022/04/25 03:36:33;;;;;;;1.55;1.45;;;19.50;47.50;;;;;;5073770;28;43534;-59
2022/04/25 03:39:00;;;;;;;1.88;1.70;;;19.50;47.50;;;;;;5069985;28;43991;-60
2022/04/25 03:41:31;;;;;;;1.65;1.55;;;19.50;47.60;;;;;;5071541;28;43902;-60
2022/04/25 03:43:58;;;;;;;2.42;1.75;;;19.50;47.60;;;;;;5071520;28;43459;-60
2022/04/25 03:46:27;;;;;;;1.45;1.35;;;19.50;48.20;;;;;;5061525;28;43470;-59
2022/04/25 03:48:54;;;;;;;2.25;1.60;;;19.50;47.40;;;;;;5068755;28;43798;-59
2022/04/25 03:51:22;;;;;;;1.60;1.50;;;19.50;47.40;;;;;;5064249;28;44008;-59
2022/04/25 03:53:50;;;;;;;1.70;1.60;;;19.50;47.40;;;;;;5066996;28;43430;-59
2022/04/25 03:59:03;;;;;;;1.92;1.80;;;19.50;47.50;;;;;;5070987;28;43896;-59
2022/04/25 04:01:31;;;;;;;2.08;1.60;;;19.40;47.40;;;;;;5071459;28;44235;-60
2022/04/25 04:04:04;;;;;;;1.52;1.42;;;19.50;47.50;;;;;;5070287;28;43474;-60
2022/04/25 04:06:37;;;;;;;1.90;1.70;;;19.40;47.50;;;;;;5068843;28;43561;-59
2022/04/25 04:09:44;;;;;;;1.98;1.77;;;19.40;47.60;;;;;;5070035;28;44973;-60
2022/04/25 04:11:52;;;;;;;1.90;1.60;;;19.40;47.60;;;;;;5074032;28;43684;-60
2022/04/25 04:14:19;;;;;;;1.98;1.58;;;19.40;47.40;;;;;;5070763;27;43421;-59
2022/04/25 04:16:47;;;;;;;1.63;1.52;;;19.40;47.40;;;;;;5070753;27;43518;-59
2022/04/25 04:19:14;;;;;;;1.65;1.48;;;19.40;47.40;;;;;;5071917;28;45045;-60
2022/04/25 04:21:41;;;;;;;1.50;1.40;;;19.40;47.40;;;;;;5073556;28;43901;-59
2022/04/25 04:24:09;;;;;;;1.80;1.70;;;19.40;47.40;;;;;;5071765;27;43508;-60
2022/04/25 04:26:37;;;;;;;1.92;1.50;;;19.40;47.50;;;;;;5070071;28;43479;-59
2022/04/25 04:29:04;;;;;;;2.00;1.38;;;19.40;47.40;;;;;;5069601;28;44431;-59
2022/04/25 04:31:32;;;;;;;1.67;1.58;;;19.40;47.50;;;;;;5071809;28;44006;-60
2022/04/25 04:33:59;;;;;;;2.15;1.60;;;19.40;47.40;;;;;;5070427;27;43546;-60
2022/04/25 04:36:27;;;;;;;2.20;1.80;;;19.40;47.40;;;;;;5070873;28;43524;-59
2022/04/25 04:38:54;;;;;;;2.08;1.70;;;19.40;47.50;;;;;;5069340;28;43977;-60
2022/04/25 04:41:22;;;;;;;1.60;1.50;;;19.30;47.60;;;;;;5072243;28;43744;-60
2022/04/25 04:43:49;;;;;;;2.08;1.83;;;19.30;47.60;;;;;;5067672;28;43473;-60
2022/04/25 04:46:16;;;;;;;1.90;1.65;;;19.30;47.50;;;;;;5066898;28;43681;-59
2022/04/25 04:48:44;;;;;;;1.85;1.58;;;19.30;47.40;;;;;;5102509;27;43959;-59
2022/04/25 04:51:11;;;;;;;1.50;1.40;;;19.30;47.50;;;;;;5070176;28;43616;-59
2022/04/25 04:53:38;;;;;;;2.35;1.70;;;19.30;47.60;;;;;;5073253;28;43493;-59
2022/04/25 04:56:06;;;;;;;2.55;1.92;;;19.30;47.60;;;;;;5070522;27;43647;-59
2022/04/25 04:58:39;;;;;;;1.65;1.50;;;19.30;47.60;;;;;;5079806;27;44063;-60
2022/04/25 05:01:07;;;;;;;2.03;1.50;;;19.20;47.60;;;;;;5070715;28;43500;-59
2022/04/25 05:03:35;;;;;;;2.08;1.67;;;19.30;47.60;;;;;;5072787;28;43489;-60
2022/04/25 05:06:02;;;;;;;1.50;1.40;;;19.30;47.60;;;;;;5070504;28;43610;-59
2022/04/25 05:08:30;;;;;;;1.65;1.55;;;19.30;47.50;;;;;;5068943;28;45108;-59
2022/04/25 05:10:57;;;;;;;1.67;1.58;;;19.30;47.50;;;;;;5062654;28;43866;-60
2022/04/25 05:13:24;;;;;;;2.15;1.80;;;19.20;47.40;;;;;;5102836;27;43489;-60
2022/04/25 05:15:52;;;;;;;2.30;1.60;;;19.20;47.50;;;;;;5067359;28;43550;-59
2022/04/25 05:18:19;;;;;;;1.75;1.48;;;19.20;47.60;;;;;;5058095;28;45090;-60
2022/04/25 05:20:47;;;;;;;1.77;1.33;;;19.20;47.60;;;;;;5072848;28;43417;-59
2022/04/25 05:23:14;;;;;;;1.73;1.63;;;19.20;47.50;;;;;;5072741;27;43441;-60
2022/04/25 05:25:42;;;;;;;2.15;1.70;;;19.20;47.50;;;;;;5071700;28;43461;-59
2022/04/25 05:28:09;;;;;;;1.98;1.50;;;19.20;47.60;;;;;;5072849;28;44355;-59
2022/04/25 05:30:36;;;;;;;1.83;1.55;;;19.20;47.70;;;;;;5073931;27;44120;-59
2022/04/25 05:33:05;;;;;;;1.65;1.55;;;19.20;47.70;;;;;;5077632;27;43489;-60
2022/04/25 05:35:33;;;;;;;1.98;1.67;;;19.20;47.60;;;;;;5072315;28;43565;-60
2022/04/25 05:38:01;;;;;;;1.77;1.50;;;19.20;47.70;;;;;;5071728;28;44835;-60
2022/04/25 05:40:29;;;;;;;1.77;1.67;;;19.10;47.70;;;;;;5073116;28;43977;-60
2022/04/25 05:42:57;;;;;;;1.65;1.50;;;19.10;47.70;;;;;;5077017;28;43498;-60
2022/04/25 05:45:25;;;;;;;1.95;1.77;;;19.10;47.70;;;;;;5071983;28;43529;-59
2022/04/25 05:47:54;;;;;;;1.70;1.60;;;19.10;47.60;;;;;;5072679;27;44871;-60
2022/04/25 05:53:09;;;;;;;2.60;2.03;;;19.10;47.70;;;;;;5073740;28;43510;-61
2022/04/25 05:55:36;;;;;;;2.28;1.65;;;19.10;47.70;;;;;;5073412;28;43664;-60
2022/04/25 05:58:06;;;;;;;1.50;1.40;;;19.10;47.70;;;;;;5073460;28;44867;-60
2022/04/25 06:00:35;;;;;;;2.53;1.63;;;19.10;47.70;;;;;;5077406;28;43993;-60
2022/04/25 06:03:02;;;;;;;1.98;1.50;;;19.10;47.70;;;;;;5068439;28;43425;-59
2022/04/25 06:05:29;;;;;;;1.80;1.38;;;19.10;47.70;;;;;;5072585;28;43595;-60
2022/04/25 06:07:57;;;;;;;1.48;1.38;;;19.10;47.70;;;;;;5071703;27;44370;-61
2022/04/25 06:10:28;;;;;;;1.60;1.50;;;19.10;47.80;;;;;;5075993;27;44062;-59
2022/04/25 06:12:55;;;;;;;1.95;1.55;;;19.10;47.80;;;;;;5071491;28;43544;-59
2022/04/25 06:15:24;;;;;;;1.52;1.42;;;19.10;47.80;;;;;;5068789;28;43573;-59
2022/04/25 06:17:56;;;;;;;1.67;1.55;;;19.10;47.80;;;;;;5068161;28;44869;-61
2022/04/25 06:20:24;;;;;;;1.60;1.50;;;19.10;47.80;;;;;;5070801;28;44115;-60
2022/04/25 06:22:57;;;;;;;1.40;1.30;;;19.10;47.80;;;;;;5070437;28;43424;-60
2022/04/25 06:25:29;;;;;;;1.58;1.48;;;19.10;47.80;;;;;;5071717;28;43490;-60
2022/04/25 06:27:57;;;;;;;;;;;19.10;47.80;;;;;;5077069;28;45004;-60
2022/04/25 06:30:28;;;;;;;1.83;1.60;;;19.00;47.80;;;;;;5072450;27;43447;-60
2022/04/25 06:33:00;;;;;;;1.90;1.70;;;19.00;47.90;;;;;;5072092;28;43455;-60
2022/04/25 06:35:28;;;;;;;1.55;1.45;;;19.00;47.80;;;;;;5072295;28;43588;-59
2022/04/25 06:37:56;;;;;;;2.85;1.50;;;19.00;47.80;;;;;;5076314;27;43626;-60
2022/04/25 06:40:23;;;;;;;1.88;1.50;;;19.00;47.70;;;;;;5070558;28;43486;-60
2022/04/25 06:42:52;;;;;;;1.48;1.38;;;19.00;47.70;;;;;;5071201;28;43471;-60
2022/04/25 06:45:20;;;;;;;2.30;1.67;;;19.00;47.70;;;;;;5066648;28;43614;-60
2022/04/25 06:47:48;;;;;;;1.52;1.42;;;19.10;48.30;;;;;;5070080;28;44068;-59
2022/04/25 06:50:15;;;;;;;1.55;1.40;;;19.10;47.70;;;;;;5065289;28;43924;-59
2022/04/25 06:52:42;;;;;;;3.45;2.05;;;19.10;47.70;;;;;;5059039;28;43474;-59
2022/04/25 06:55:10;;;;;;;3.75;2.70;;;19.10;48.30;;;;;;5076107;28;43596;-59
2022/04/25 06:57:38;;;;;;;2.33;2.13;;;19.10;47.70;;;;;;5075609;27;45123;-59
2022/04/25 07:00:11;;;;;;;3.40;2.45;;;19.10;47.80;;;;;;5071495;28;43902;-59
2022/04/25 07:02:59;;;;;;;3.00;2.72;;;19.10;47.70;;;;;;5072184;28;43529;-59
2022/04/25 07:05:27;;;;;;;2.60;2.40;;;19.20;48.30;;;;;;5060792;28;43473;-60
2022/04/25 07:07:54;;;;;;;3.88;2.10;;;19.30;47.80;;;;;;5064131;28;43994;-60
2022/04/25 07:10:21;;;;;;;2.70;1.92;;;19.40;47.70;;;;;;5065850;28;43701;-60
2022/04/25 07:12:49;;;;;;;2.50;2.30;;;19.50;47.60;;;;;;5069213;28;43459;-60
2022/04/25 07:15:16;;;;;;;2.10;2.00;;;19.70;47.50;;;;;;5061514;27;43536;-60
2022/04/25 07:17:43;;;;;;;2.67;2.22;;;19.80;47.40;;;;;;5067178;28;43891;-59
2022/04/25 07:20:11;;;;;;;1.92;1.83;;;20.00;47.30;;;;;;5068011;28;43556;-60
2022/04/25 07:30:58;;;;;;;2.03;1.92;;;20.50;46.70;;;;;;5065939;28;44070;-60
2022/04/25 07:33:26;;;;;;;2.72;2.08;;;20.70;46.70;;;;;;5069507;28;43474;-60
2022/04/25 07:35:54;;;;;;;1.85;1.75;;;20.80;46.40;;;;;;5068768;28;43473;-59
2022/04/25 07:38:22;;;;;;;2.15;1.85;;;20.90;46.30;;;;;;5072689;28;43849;-59
2022/04/25 07:40:49;;;;;;;2.22;2.03;;;21.10;46.10;;;;;;5068505;28;43489;-60
2022/04/25 07:43:16;;;;;;;1.90;1.80;;;21.20;46.00;;;;;;5071043;27;43489;-59
2022/04/25 07:45:44;;;;;;;1.98;1.85;;;21.40;45.80;;;;;;5074271;28;43569;-59
2022/04/25 07:48:11;;;;;;;3.00;1.98;;;21.50;45.60;;;;;;5069359;28;44901;-60
2022/04/25 07:50:39;;;;;;;1.73;1.63;;;21.60;45.50;;;;;;5069782;28;44045;-59
2022/04/25 07:53:07;;;;;;;4.93;1.67;;;21.60;45.20;;;;;;5070837;28;43935;-60
2022/04/25 07:55:34;;;;;;;4.65;1.88;;;21.70;45.50;;;;;;5065902;28;43460;-60
2022/04/25 07:58:02;;;;;;;5.78;1.80;;;21.70;45.60;;;;;;5071982;28;44003;-60
2022/04/25 08:00:29;;;;;;;2.58;1.90;;;21.70;45.80;;;;;;5071564;28;43817;-60
2022/04/25 08:02:56;;;;;;;4.20;1.75;;;21.80;45.50;;;;;;5069426;28;43506;-59
2022/04/25 08:05:24;;;;;;;3.92;1.75;;;21.80;45.60;;;;;;5070551;27;43669;-59
2022/04/25 08:07:52;;;;;;;3.30;1.90;;;21.80;45.60;;;;;;5071332;28;44155;-59
2022/04/25 08:10:19;;;;;;;3.20;1.98;;;21.80;45.50;;;;;;5076743;27;43806;-60
2022/04/25 08:18:18;;;;;;;2.83;1.65;;;21.90;45.40;;;;;;5084841;27;43627;-60
2022/04/25 08:20:47;;;;;;;5.40;1.90;;;22.00;45.30;;;;;;5070732;28;44408;-62
2022/04/25 08:23:15;;;;;;;4.72;2.03;;;22.00;45.30;;;;;;5072496;28;43485;-60
2022/04/25 08:25:42;;;;;;;5.05;1.88;;;22.10;45.20;;;;;;5063865;28;44355;-59
2022/04/25 08:28:10;;;;;;;6.65;1.67;;;22.20;45.20;;;;;;5073227;27;44757;-59
2022/04/25 08:30:38;;;;;;;7.70;1.80;;;22.30;45.30;;;;;;5071540;28;43535;-60
2022/04/25 08:33:08;;;;;;;8.25;1.88;;;22.30;45.20;;;;;;5074543;28;43459;-60
2022/04/25 08:35:35;;;;;;;5.78;1.83;;;22.40;45.20;;;;;;5071496;27;43516;-61
2022/04/25 08:38:03;;;;;;;3.65;1.40;;;22.40;45.00;;;;;;5072122;28;44981;-60
2022/04/25 08:40:30;;;;;;;5.13;1.90;;;22.50;44.90;;;;;;5090282;27;43479;-60
2022/04/25 08:43:00;;;;;;;4.53;1.60;;;22.60;44.80;;;;;;5072495;27;43503;-60
2022/04/25 08:45:34;;;;;;;4.78;1.67;;;22.60;44.70;;;;;;5066305;28;43506;-61
2022/04/25 08:48:03;;;;;;;2.78;1.40;;;22.70;44.50;;;;;;5066731;28;44072;-61
2022/04/25 08:50:32;;;;;;;3.70;1.40;;;22.70;44.40;;;;;;5072513;27;43428;-60
2022/04/25 08:53:09;;;;;;;2.38;1.40;;;22.70;44.20;;;;;;5070652;28;43500;-59
2022/04/25 08:55:38;;;;;;;4.63;1.80;;;22.70;44.20;;;;;;5074299;27;43416;-60
2022/04/25 08:58:06;;;;;;;4.07;1.50;;;22.70;44.30;;;;;;5073233;28;43946;-60
2022/04/25 09:00:34;;;;;;;3.53;1.63;;;22.70;44.40;;;;;;5075921;28;43533;-61
2022/04/25 09:03:05;;;;;;;5.75;1.70;;;22.70;44.30;;;;;;5075804;28;43441;-60
2022/04/25 09:05:36;;;;;;;3.53;1.55;;;22.70;44.90;;;;;;5077116;28;44037;-60
2022/04/25 09:08:04;;;;;;;4.18;1.70;;;22.60;44.50;;;;;;5079495;28;44042;-61
2022/04/25 09:10:35;;;;;;;4.97;2.10;;;22.60;44.50;;;;;;5074848;27;43497;-60
2022/04/25 09:13:06;;;;;;;3.33;2.28;;;22.60;44.50;;;;;;5074215;28;43481;-60
2022/04/25 09:15:38;;;;;;;5.07;3.08;;;22.60;44.50;;;;;;5069967;28;44260;-60
2022/04/25 09:18:06;;;;;;;7.72;2.92;;;22.60;44.50;;;;;;5059474;27;44698;-61
2022/04/25 09:20:33;;;;;;;4.68;2.70;;;22.60;44.50;;;;;;5090743;27;43555;-61
2022/04/25 09:23:01;;;;;;;4.53;2.92;;;22.50;44.50;;;;;;5071352;27;43526;-60
2022/04/25 09:25:28;;;;;;;5.57;3.17;;;22.60;44.60;;;;;;5078260;28;43645;-60
2022/04/25 09:28:15;;;;;;;7.30;3.00;;;22.50;44.60;;;;;;5077131;28;44034;-61
2022/04/25 09:30:57;;;;;;;6.80;3.22;;;22.50;44.70;;;;;;5075608;28;43694;-60
2022/04/25 09:33:25;;;;;;;4.90;3.78;;;22.50;44.80;;;;;;5068721;28;43407;-60
2022/04/25 09:35:55;;;;;;;9.18;3.72;;;22.50;44.70;;;;;;5079383;28;43538;-60
2022/04/25 09:38:34;;;;;;;8.57;4.30;;;22.50;45.50;;;;;;5075839;28;44882;-61
2022/04/25 09:41:04;;;;;;;6.55;3.85;;;22.50;44.90;;;;;;5075797;28;43616;-60
2022/04/25 09:43:34;;;;;;;5.85;3.33;;;22.50;44.90;;;;;;5077718;28;44051;-60
2022/04/25 09:46:12;;;;;;;6.85;3.08;;;22.50;45.00;;;;;;5077286;28;43521;-60
2022/04/25 09:48:58;;;;;;;5.65;3.30;;;22.50;45.30;;;;;;5068058;28;45105;-61
2022/04/25 09:51:25;;;;;;;4.50;3.10;;;22.50;45.10;;;;;;5068434;28;43457;-59
2022/04/25 09:53:54;;;;;;;6.55;3.00;;;22.50;45.10;;;;;;5080758;27;43427;-59
2022/04/25 09:56:24;;;;;;;6.30;3.20;;;22.50;45.30;;;;;;5081182;28;43604;-60
2022/04/25 09:59:06;;;;;;;6.07;3.60;;;22.50;45.10;;;;;;5078228;27;44972;-61
2022/04/25 10:01:36;;;;;;;6.20;3.40;;;22.50;45.10;;;;;;5067737;28;43516;-61
2022/04/25 10:04:25;;;;;;;4.90;2.80;;;22.50;45.20;;;;;;5068450;28;43413;-60
2022/04/25 10:06:54;;;;;;;4.72;2.88;;;22.50;45.20;;;;;;5062161;28;43597;-60
2022/04/25 10:09:28;;;;;;;7.22;2.63;;;22.50;45.20;;;;;;5065387;28;44001;-61
2022/04/25 10:12:01;;;;;;;6.25;2.80;;;22.50;45.20;;;;;;5060852;28;43523;-60
2022/04/25 10:14:29;;;;;;;4.93;2.50;;;22.50;45.20;;;;;;5063391;28;43517;-61
2022/04/25 10:16:58;;;;;;;3.10;2.40;;;22.50;45.30;;;;;;5066179;28;43620;-60
2022/04/25 10:19:28;;;;;;;5.10;2.75;;;22.50;45.30;;;;;;5067575;27;43682;-60
2022/04/25 10:21:58;;;;;;;5.50;2.80;;;22.50;45.30;;;;;;5065377;28;43510;-61
2022/04/25 10:24:26;;;;;;;5.05;2.83;;;22.50;45.40;;;;;;5063571;28;43443;-61
2022/04/25 10:26:57;;;;;;;4.15;2.50;;;22.50;45.40;;;;;;5068055;28;43678;-60
2022/04/25 10:29:34;;;;;;;4.30;2.60;;;22.50;45.40;;;;;;5068755;28;43808;-62
2022/04/25 10:32:04;;;;;;;4.63;2.58;;;22.50;45.40;;;;;;5064813;28;43705;-60
2022/04/25 10:34:46;;;;;;;3.45;2.60;;;22.50;45.50;;;;;;5064699;28;43474;-60
2022/04/25 10:37:33;;;;;;;3.60;2.33;;;22.50;45.60;;;;;;5070696;28;43569;-60
2022/04/25 10:40:06;;;;;;;4.28;2.53;;;22.50;45.60;;;;;;5071380;28;43796;-60
2022/04/25 10:46:00;;;;;;;6.28;2.53;;;22.50;45.70;;;;;;5060205;28;43550;-61
2022/04/25 10:48:29;;;;;;;3.72;2.22;;;22.50;45.80;;;;;;5075471;28;43573;-60
2022/04/25 10:51:16;;;;;;;3.97;2.60;;;22.50;45.90;;;;;;5072599;27;44219;-60
2022/04/25 10:53:57;;;;;;;4.03;2.50;;;22.50;45.80;;;;;;5068532;28;43941;-60
2022/04/25 10:56:26;;;;;;;3.55;2.47;;;22.50;45.90;;;;;;5078425;28;44057;-61
2022/04/25 10:59:27;;;;;;;4.40;2.88;;;22.40;45.80;;;;;;5076726;28;43597;-59
2022/04/25 11:01:58;;;;;;;2.85;2.00;;;22.40;45.80;;;;;;5042195;28;44597;-60
2022/04/25 11:04:26;;;;;;;3.50;2.43;;;22.40;45.90;;;;;;5080654;28;44133;-60
2022/04/25 11:07:20;;;;;;;3.97;2.22;;;22.40;46.40;;;;;;5079460;28;43423;-60
2022/04/25 11:09:48;;;;;;;5.03;2.03;;;22.40;45.80;;;;;;5065638;28;43584;-61
2022/04/25 11:12:16;;;;;;;2.60;2.00;;;22.40;45.70;;;;;;5090177;27;45593;-60
2022/04/25 11:15:02;;;;;;;3.22;2.20;;;22.40;45.80;;;;;;5100280;27;45095;-60
2022/04/25 11:17:30;;;;;;;4.95;2.30;;;22.40;45.80;;;;;;5069308;28;43490;-59
2022/04/25 11:19:57;;;;;;;3.13;2.17;;;22.40;45.90;;;;;;5070570;28;43676;-59
2022/04/25 11:22:48;;;;;;;5.32;2.28;;;22.40;46.10;;;;;;5067841;27;44098;-60
2022/04/25 11:25:25;;;;;;;2.33;2.00;;;22.40;45.90;;;;;;5078825;28;44385;-60
2022/04/25 11:28:07;;;;;;;2.42;2.08;;;22.40;46.00;;;;;;5066877;28;43423;-60
2022/04/25 11:30:36;;;;;;;3.00;1.80;;;22.40;46.00;;;;;;5067289;28;43555;-60
2022/04/25 11:33:12;;;;;;;2.20;1.90;;;22.40;45.90;;;;;;5073764;28;44203;-59
2022/04/25 11:35:44;;;;;;;2.55;1.90;;;22.40;46.00;;;;;;5073900;28;43411;-60
2022/04/25 11:39:50;;;;;;;2.13;1.90;;;22.40;46.60;;;;;;5069064;28;43522;-60
2022/04/25 11:41:04;;;;;;;2.50;2.13;;;22.40;46.00;;;;;;5069491;28;43584;-60
2022/04/25 11:43:31;;;;;;;1.83;1.67;;;22.40;45.90;;;;;;5072922;28;44711;-60
2022/04/25 11:45:59;;;;;;;3.63;1.98;;;22.40;45.90;;;;;;5076206;27;43553;-60
2022/04/25 11:48:28;;;;;;;3.33;2.42;;;22.40;46.30;;;;;;5067165;28;44062;-60
2022/04/25 11:50:57;;;;;;;1.73;1.63;;;22.40;46.00;;;;;;5074311;28;43458;-60
2022/04/25 11:53:32;;;;;;;1.73;1.55;;;22.40;46.00;;;;;;5073089;27;44050;-59
2022/04/25 11:56:16;;;;;;;2.42;1.80;;;22.50;46.00;;;;;;5072430;28;43505;-60
2022/04/25 11:58:44;;;;;;;2.65;1.85;;;22.50;46.00;;;;;;5062441;28;43488;-60
2022/04/25 12:01:13;;;;;;;3.38;1.77;;;22.50;46.00;;;;;;5071738;28;44094;-60
2022/04/25 12:03:47;;;;;;;3.13;1.90;;;22.50;46.10;;;;;;5068528;28;44302;-60
2022/04/25 12:06:16;;;;;;;2.83;1.70;;;22.50;46.10;;;;;;5061348;28;43563;-61
2022/04/25 12:17:22;;;;;;;1.92;1.63;;;22.50;46.10;;;;;;5065201;28;43517;-60
2022/04/25 12:20:02;;;;;;;1.55;1.45;;;22.50;46.10;;;;;;5081619;27;44086;-59
2022/04/25 12:22:30;;;;;;;1.88;1.63;;;22.50;46.00;;;;;;5070628;28;43468;-60
2022/04/25 12:25:18;;;;;;;1.80;1.65;;;22.50;46.10;;;;;;5069910;28;44215;-60
2022/04/25 12:28:06;;;;;;;1.70;1.50;;;22.50;46.00;;;;;;5089423;27;43455;-60
2022/04/25 12:31:22;;;;;;;1.55;1.45;;;22.50;46.00;;;;;;5065896;28;44071;-60
2022/04/25 12:33:53;;;;;;;2.50;1.80;;;22.50;46.00;;;;;;5053117;28;43519;-60
2022/04/25 12:36:22;;;;;;;1.85;1.50;;;22.50;46.30;;;;;;5065158;27;43930;-60
2022/04/25 12:39:18;;;;;;;3.15;1.70;;;22.50;46.40;;;;;;5075149;28;43505;-60
2022/04/25 12:41:57;;;;;;;2.22;1.38;;;22.50;46.30;;;;;;5063258;28;43479;-59
2022/04/25 12:44:25;;;;;;;2.08;1.42;;;22.60;46.40;;;;;;5067316;28;43537;-60
2022/04/25 12:47:08;;;;;;;1.60;1.50;;;22.60;46.30;;;;;;5085975;27;44873;-60
2022/04/25 12:49:47;;;;;;;1.83;1.50;;;22.60;46.20;;;;;;5073067;28;43690;-60
2022/04/25 12:52:16;;;;;;;1.67;1.48;;;22.60;46.20;;;;;;5059857;28;43382;-60
2022/04/25 12:54:49;;;;;;;1.85;1.40;;;22.60;46.10;;;;;;5077479;27;43416;-60
2022/04/25 12:57:20;;;;;;;1.83;1.50;;;22.60;46.10;;;;;;5077020;28;44733;-60
2022/04/25 12:59:53;;;;;;;;;;;22.60;46.20;;;;;;5071141;27;43380;-60
2022/04/25 13:02:32;;;;;;;2.05;1.20;;;22.60;46.30;;;;;;5066567;28;43455;-60
2022/04/25 13:05:04;;;;;;;1.80;1.63;;;22.60;46.30;;;;;;5066146;28;43602;-62
2022/04/25 13:07:46;;;;;;;1.63;1.40;;;22.60;46.50;;;;;;5077060;27;43812;-61
2022/04/25 13:10:15;;;;;;;2.03;1.50;;;22.60;46.20;;;;;;5070415;28;43468;-62
2022/04/25 13:12:52;;;;;;;3.05;1.50;;;22.70;46.20;;;;;;5067140;28;43449;-60
2022/04/25 13:15:25;;;;;;;2.30;1.23;;;22.70;46.40;;;;;;5046756;28;43671;-60
2022/04/25 13:17:54;;;;;;;1.60;1.50;;;22.60;46.30;;;;;;5069233;28;45231;-60
2022/04/25 13:20:25;;;;;;;2.10;1.40;;;22.70;46.40;;;;;;5069372;28;43398;-60
2022/04/25 13:22:52;;;;;;;4.10;1.52;;;22.70;46.30;;;;;;5097613;27;43529;-60
2022/04/25 13:25:23;;;;;;;1.50;1.40;;;22.70;46.30;;;;;;5076301;27;43447;-59
2022/04/25 13:27:51;;;;;;;2.25;1.48;;;22.70;46.30;;;;;;5097430;27;43871;-60
2022/04/25 13:30:20;;;;;;;2.28;1.30;;;22.70;46.10;;;;;;5070086;27;44171;-60
2022/04/25 13:32:48;;;;;;;2.75;1.58;;;22.70;46.20;;;;;;5080962;28;43446;-60
2022/04/25 13:35:16;;;;;;;1.30;1.20;;;22.80;46.30;;;;;;5075823;27;43639;-61
2022/04/25 13:37:44;;;;;;;1.30;1.20;;;22.80;46.10;;;;;;5066499;28;44210;-60